American Highway — H3AJ — position and weather

sailwx.info

Track history (hours):
 
Tides and Currents Weather Stations Pressure Air Temp Water Temp Dewpoint Dewpoint Depression Visibility Wind Speed Wind Dir Waves Ship Positions

American Highway

Last reported at 2017-Dec-03 23:57 UTC. Time now 2017-Dec-16 22:46 UTC.
Position N 01°12' E 103°32'.
Warning: this ship's position is 12 days out of date.

Length 180 m; draft 8.5 m.

Type: Cargo ship. MMSI: 351124000.

Date/timePositionNaut miles runAvg speedWind from/ knotsBaromVisibWave heightAir tempDewpointWater temp
2017-Dec-03 23:57N 01°12' E 103°32'817.3
2017-Dec-03 23:30N 01°11' E 103°40'815.6
2017-Dec-03 22:59N 01°11' E 103°48'714.1
2017-Dec-03 22:31N 01°13' E 103°54'3 5.1
2017-Dec-03 21:59N 01°16' E 103°55'1 2.2
2017-Dec-03 21:20N 01°16' E 103°54'0 0.0
2017-Dec-03 20:56N 01°16' E 103°54'0 0.0
2017-Dec-03 19:56N 01°16' E 103°54'0 0.0
2017-Dec-03 19:26N 01°16' E 103°54'0 0.0
2017-Dec-03 18:53N 01°16' E 103°54'0 0.0
2017-Dec-03 18:29N 01°16' E 103°54'0 0.0
2017-Dec-03 17:50N 01°16' E 103°54'0 0.0
2017-Dec-03 17:26N 01°16' E 103°54'0 0.0
2017-Dec-03 16:50N 01°16' E 103°54'0 0.2
2017-Dec-03 16:27N 01°16' E 103°54'0 0.3
2017-Dec-03 16:00N 01°16' E 103°54'3 5.9
2017-Dec-03 15:30N 01°13' E 103°52'4 8.7
2017-Dec-03 15:00N 01°13' E 103°48'4 9.0
2017-Dec-03 14:30N 01°16' E 103°45'1 2.0
2017-Dec-03 14:00N 01°17' E 103°45'0 0.0
2017-Dec-03 13:26N 01°17' E 103°45'0 0.0
2017-Dec-03 12:53N 01°17' E 103°45'0 0.0
2017-Dec-03 12:20N 01°17' E 103°45'0 0.0
2017-Dec-03 11:56N 01°17' E 103°45'0 0.0
2017-Dec-03 11:20N 01°17' E 103°45'0 0.0
2017-Dec-03 10:56N 01°17' E 103°45'0 0.0
2017-Dec-03 10:17N 01°17' E 103°45'0 0.0
2017-Dec-03 09:58N 01°17' E 103°45'0 0.0
2017-Dec-03 09:28N 01°17' E 103°45'0 0.0
2017-Dec-03 08:59N 01°17' E 103°45'0 0.0
2017-Dec-03 08:30N 01°17' E 103°45'0 0.0
2017-Dec-03 08:01N 01°17' E 103°45'0 0.0
2017-Dec-03 07:30N 01°17' E 103°45'0 0.0
2017-Dec-03 07:01N 01°17' E 103°45'0 0.0
2017-Dec-03 06:30N 01°17' E 103°45'0 0.0
2017-Dec-03 06:00N 01°17' E 103°45'0 0.7
2017-Dec-03 05:30N 01°17' E 103°45'3 6.0
2017-Dec-03 05:00N 01°15' E 103°47'5 9.6
2017-Dec-03 04:30N 01°12' E 103°51'4 7.0
2017-Dec-03 04:00N 01°14' E 103°54'5 9.1
2017-Dec-03 03:30N 01°15' E 103°59'5 8.6
2017-Dec-03 02:57N 01°16' E 104°03'  
2017-Nov-28 09:50N 25°19' E 120°37'  
Track history (hours):
 
Tides and Currents Weather Stations Pressure Air Temp Water Temp Dewpoint Dewpoint Depression Visibility Wind Speed Wind Dir Waves Ship Positions

American Highway

Last reported at 2017-Dec-03 23:57 UTC. Time now 2017-Dec-16 22:46 UTC.
Position N 01°12' E 103°32'.
Warning: this ship's position is 12 days out of date.

Length 180 m; draft 8.5 m.

Type: Cargo ship. MMSI: 351124000.

Date/timePositionNaut miles runAvg speedWind from/ knotsBaromVisibWave heightAir tempDewpointWater temp
2017-Dec-03 23:57N 01°12' E 103°32'817.3
2017-Dec-03 23:30N 01°11' E 103°40'815.6
2017-Dec-03 22:59N 01°11' E 103°48'714.1
2017-Dec-03 22:31N 01°13' E 103°54'3 5.1
2017-Dec-03 21:59N 01°16' E 103°55'1 2.2
2017-Dec-03 21:20N 01°16' E 103°54'0 0.0
2017-Dec-03 20:56N 01°16' E 103°54'0 0.0
2017-Dec-03 19:56N 01°16' E 103°54'0 0.0
2017-Dec-03 19:26N 01°16' E 103°54'0 0.0
2017-Dec-03 18:53N 01°16' E 103°54'0 0.0
2017-Dec-03 18:29N 01°16' E 103°54'0 0.0
2017-Dec-03 17:50N 01°16' E 103°54'0 0.0
2017-Dec-03 17:26N 01°16' E 103°54'0 0.0
2017-Dec-03 16:50N 01°16' E 103°54'0 0.2
2017-Dec-03 16:27N 01°16' E 103°54'0 0.3
2017-Dec-03 16:00N 01°16' E 103°54'3 5.9
2017-Dec-03 15:30N 01°13' E 103°52'4 8.7
2017-Dec-03 15:00N 01°13' E 103°48'4 9.0
2017-Dec-03 14:30N 01°16' E 103°45'1 2.0
2017-Dec-03 14:00N 01°17' E 103°45'0 0.0
2017-Dec-03 13:26N 01°17' E 103°45'0 0.0
2017-Dec-03 12:53N 01°17' E 103°45'0 0.0
2017-Dec-03 12:20N 01°17' E 103°45'0 0.0
2017-Dec-03 11:56N 01°17' E 103°45'0 0.0
2017-Dec-03 11:20N 01°17' E 103°45'0 0.0
2017-Dec-03 10:56N 01°17' E 103°45'0 0.0
2017-Dec-03 10:17N 01°17' E 103°45'0 0.0
2017-Dec-03 09:58N 01°17' E 103°45'0 0.0
2017-Dec-03 09:28N 01°17' E 103°45'0 0.0
2017-Dec-03 08:59N 01°17' E 103°45'0 0.0
2017-Dec-03 08:30N 01°17' E 103°45'0 0.0
2017-Dec-03 08:01N 01°17' E 103°45'0 0.0
2017-Dec-03 07:30N 01°17' E 103°45'0 0.0
2017-Dec-03 07:01N 01°17' E 103°45'0 0.0
2017-Dec-03 06:30N 01°17' E 103°45'0 0.0
2017-Dec-03 06:00N 01°17' E 103°45'0 0.7
2017-Dec-03 05:30N 01°17' E 103°45'3 6.0
2017-Dec-03 05:00N 01°15' E 103°47'5 9.6
2017-Dec-03 04:30N 01°12' E 103°51'4 7.0
2017-Dec-03 04:00N 01°14' E 103°54'5 9.1
2017-Dec-03 03:30N 01°15' E 103°59'5 8.6
2017-Dec-03 02:57N 01°16' E 104°03'  
2017-Nov-28 09:50N 25°19' E 120°37'  

Dump ship's entire track history